createdAt,value
2018-02-16T00:00:13.053Z,0
2018-02-16T00:00:53.442Z,0
2018-02-16T00:01:33.879Z,0
2018-02-16T00:02:14.196Z,0
2018-02-16T00:02:54.629Z,0
2018-02-16T00:03:35.049Z,0
2018-02-16T00:04:15.476Z,0
2018-02-16T00:04:55.888Z,0
2018-02-16T00:05:36.289Z,0
2018-02-16T00:06:16.660Z,0
2018-02-16T00:06:57.080Z,0
2018-02-16T00:07:37.463Z,0
2018-02-16T00:08:17.879Z,0
2018-02-16T00:08:58.291Z,0
2018-02-16T00:09:38.611Z,0
2018-02-16T00:10:19.022Z,0
2018-02-16T00:10:59.373Z,0
2018-02-16T00:11:39.825Z,0
2018-02-16T00:12:20.199Z,0
2018-02-16T00:13:00.608Z,0
2018-02-16T00:13:41.052Z,0
2018-02-16T00:14:21.384Z,0
2018-02-16T00:15:01.862Z,0
2018-02-16T00:15:42.266Z,0
2018-02-16T00:16:22.638Z,0
2018-02-16T00:17:03.131Z,0
2018-02-16T00:17:43.704Z,0
2018-02-16T00:18:24.092Z,0
2018-02-16T00:19:04.518Z,0
2018-02-16T00:19:44.911Z,0
2018-02-16T00:20:25.311Z,0
2018-02-16T00:21:05.664Z,0
2018-02-16T00:21:46.132Z,0
2018-02-16T00:22:26.510Z,0
2018-02-16T00:23:06.889Z,0
2018-02-16T00:23:47.307Z,0
2018-02-16T00:24:27.715Z,0
2018-02-16T00:25:08.074Z,0
2018-02-16T00:25:48.438Z,0
2018-02-16T00:26:28.877Z,0
2018-02-16T00:27:09.327Z,0
2018-02-16T00:27:49.676Z,0
2018-02-16T00:28:30.159Z,0
2018-02-16T00:29:10.545Z,0
2018-02-16T00:29:50.863Z,0
2018-02-16T00:30:31.307Z,0
2018-02-16T00:31:11.698Z,0
2018-02-16T00:31:52.098Z,0
2018-02-16T00:32:32.599Z,0
2018-02-16T00:33:13.004Z,0
2018-02-16T00:33:53.342Z,0
2018-02-16T00:34:33.784Z,0
2018-02-16T00:35:14.207Z,0
2018-02-16T00:35:54.697Z,0
2018-02-16T00:36:35.148Z,0
2018-02-16T00:37:15.616Z,0
2018-02-16T00:37:55.954Z,0
2018-02-16T00:38:36.345Z,0
2018-02-16T00:39:16.759Z,0
2018-02-16T00:39:57.149Z,0
2018-02-16T00:40:37.486Z,0
2018-02-16T00:41:17.889Z,0
2018-02-16T00:41:58.324Z,0
2018-02-16T00:42:38.746Z,0
2018-02-16T00:43:19.110Z,0
2018-02-16T00:43:59.451Z,0
2018-02-16T00:44:39.855Z,0
2018-02-16T00:45:20.251Z,0
2018-02-16T00:46:00.657Z,0
2018-02-16T00:46:41.075Z,0
2018-02-16T00:47:21.459Z,0
2018-02-16T00:48:01.882Z,0
2018-02-16T00:48:42.217Z,0
2018-02-16T00:49:22.670Z,0
2018-02-16T00:50:02.985Z,0
2018-02-16T00:50:43.491Z,0
2018-02-16T00:51:23.824Z,0
2018-02-16T00:52:04.265Z,0
2018-02-16T00:52:44.651Z,0
2018-02-16T00:53:24.999Z,0
2018-02-16T00:54:05.390Z,0
2018-02-16T00:54:45.811Z,0
2018-02-16T00:55:26.156Z,0
2018-02-16T00:56:06.541Z,0
2018-02-16T00:56:46.869Z,0
2018-02-16T00:57:27.335Z,0
2018-02-16T00:58:07.731Z,0
2018-02-16T00:58:48.162Z,0
2018-02-16T00:59:28.555Z,0
2018-02-16T01:00:08.949Z,0
2018-02-16T01:00:49.335Z,0
2018-02-16T01:01:29.742Z,0
2018-02-16T01:02:10.145Z,0
2018-02-16T01:02:50.557Z,0
2018-02-16T01:03:30.890Z,0
2018-02-16T01:04:11.289Z,0
2018-02-16T01:04:51.699Z,0
2018-02-16T01:05:32.115Z,0
2018-02-16T01:06:12.562Z,0
2018-02-16T01:06:52.928Z,0
2018-02-16T01:07:33.259Z,0
2018-02-16T01:08:13.615Z,0
2018-02-16T01:08:54.055Z,0
2018-02-16T01:09:34.460Z,0
2018-02-16T01:10:14.863Z,0
2018-02-16T01:10:55.184Z,0
2018-02-16T01:11:35.654Z,0
2018-02-16T01:12:16.029Z,0
2018-02-16T01:12:56.446Z,0
2018-02-16T01:13:36.867Z,0
2018-02-16T01:14:17.222Z,0
2018-02-16T01:14:57.716Z,0
2018-02-16T01:15:38.078Z,0
2018-02-16T01:16:18.473Z,0
2018-02-16T01:16:58.816Z,0
2018-02-16T01:17:39.251Z,0
2018-02-16T01:18:19.647Z,0
2018-02-16T01:19:00.007Z,0
2018-02-16T01:19:40.461Z,0
2018-02-16T01:20:20.865Z,0
2018-02-16T01:21:01.279Z,0
2018-02-16T01:21:41.639Z,0
2018-02-16T01:22:21.997Z,0
2018-02-16T01:23:02.433Z,0
2018-02-16T01:23:42.856Z,0
2018-02-16T01:24:23.238Z,0
2018-02-16T01:25:03.642Z,0
2018-02-16T01:25:44.027Z,0
2018-02-16T01:26:24.416Z,0
2018-02-16T01:27:04.771Z,0
2018-02-16T01:27:45.131Z,0
2018-02-16T01:28:25.558Z,0
2018-02-16T01:29:06.017Z,0
2018-02-16T01:29:46.395Z,0
2018-02-16T01:30:26.802Z,0
2018-02-16T01:31:07.216Z,0
2018-02-16T01:31:47.609Z,0
2018-02-16T01:32:27.940Z,0
2018-02-16T01:33:08.296Z,0
2018-02-16T01:33:48.779Z,0
2018-02-16T01:34:29.167Z,0
2018-02-16T01:35:09.540Z,0
2018-02-16T01:35:49.898Z,0
2018-02-16T01:36:30.349Z,0
2018-02-16T01:37:10.740Z,0
2018-02-16T01:37:51.253Z,0
2018-02-16T01:38:31.569Z,0
2018-02-16T01:39:11.995Z,0
2018-02-16T01:39:52.359Z,0
2018-02-16T01:40:32.824Z,0
2018-02-16T01:41:13.154Z,0
2018-02-16T01:41:53.554Z,0
2018-02-16T01:42:33.982Z,0
2018-02-16T01:43:14.308Z,0
2018-02-16T01:43:54.692Z,0
2018-02-16T01:44:35.080Z,0
2018-02-16T01:45:15.457Z,0
2018-02-16T01:45:55.979Z,0
2018-02-16T01:46:36.314Z,0
2018-02-16T01:47:16.766Z,0
2018-02-16T01:47:57.064Z,0
2018-02-16T01:48:37.457Z,0
2018-02-16T01:49:17.840Z,0
2018-02-16T01:49:58.256Z,0
2018-02-16T01:50:38.601Z,0
2018-02-16T01:51:19.030Z,0
2018-02-16T01:51:59.419Z,0
2018-02-16T01:52:39.865Z,0
2018-02-16T01:53:20.204Z,0
2018-02-16T01:54:00.605Z,0
2018-02-16T01:54:41.033Z,0
2018-02-16T01:55:21.386Z,0
2018-02-16T01:56:01.751Z,0
2018-02-16T01:56:42.226Z,0
2018-02-16T01:57:22.698Z,0
2018-02-16T01:58:03.140Z,0
2018-02-16T01:58:43.546Z,0
2018-02-16T01:59:23.872Z,0
2018-02-16T02:00:04.320Z,0
2018-02-16T02:00:44.745Z,0
2018-02-16T02:01:25.132Z,0
2018-02-16T02:02:05.474Z,0
2018-02-16T02:02:45.909Z,0
2018-02-16T02:03:26.325Z,0
2018-02-16T02:04:07.044Z,0
2018-02-16T02:04:47.296Z,0
2018-02-16T02:05:27.614Z,0
2018-02-16T02:06:08.050Z,0
2018-02-16T02:06:48.408Z,0
2018-02-16T02:07:28.844Z,0
2018-02-16T02:08:09.277Z,0
2018-02-16T02:08:49.638Z,0
2018-02-16T02:09:30.061Z,0
2018-02-16T02:10:10.432Z,0
2018-02-16T02:10:50.875Z,0
2018-02-16T02:11:31.260Z,0
2018-02-16T02:12:11.633Z,0
2018-02-16T02:12:51.964Z,0
2018-02-16T02:13:32.440Z,0
2018-02-16T02:14:12.792Z,0
2018-02-16T02:14:53.239Z,0
2018-02-16T02:15:33.626Z,0
2018-02-16T02:16:14.001Z,0
2018-02-16T02:16:54.473Z,0
2018-02-16T02:17:34.900Z,0
2018-02-16T02:18:15.379Z,0
2018-02-16T02:18:55.899Z,0
2018-02-16T02:19:36.307Z,0
2018-02-16T02:20:16.687Z,0
2018-02-16T02:20:57.058Z,0
2018-02-16T02:21:37.449Z,0
2018-02-16T02:22:17.885Z,0
2018-02-16T02:22:58.253Z,0
2018-02-16T02:23:38.726Z,0
2018-02-16T02:24:19.102Z,0
2018-02-16T02:24:59.483Z,0
2018-02-16T02:25:39.936Z,0
2018-02-16T02:26:20.302Z,0
2018-02-16T02:27:00.697Z,0
2018-02-16T02:27:41.120Z,0
2018-02-16T02:28:21.487Z,0
2018-02-16T02:29:01.956Z,0
2018-02-16T02:29:42.256Z,0
2018-02-16T02:30:22.666Z,0
2018-02-16T02:31:03.143Z,0
2018-02-16T02:31:43.527Z,0
2018-02-16T02:32:23.859Z,0
2018-02-16T02:33:04.296Z,0
2018-02-16T02:33:44.696Z,0
2018-02-16T02:34:25.050Z,0
2018-02-16T02:35:05.391Z,0
2018-02-16T02:35:45.813Z,0
2018-02-16T02:36:26.238Z,0
2018-02-16T02:37:06.655Z,0
2018-02-16T02:37:47.030Z,0
2018-02-16T02:38:27.472Z,0
2018-02-16T02:39:07.884Z,0
2018-02-16T02:39:48.178Z,0
2018-02-16T02:40:28.641Z,0
2018-02-16T02:41:08.957Z,0
2018-02-16T02:41:49.405Z,0
2018-02-16T02:42:29.745Z,0
2018-02-16T02:43:10.202Z,0
2018-02-16T02:43:50.566Z,0
2018-02-16T02:44:30.977Z,0
2018-02-16T02:45:11.350Z,0
2018-02-16T02:45:51.828Z,0
2018-02-16T02:46:32.144Z,0
2018-02-16T02:47:12.508Z,0
2018-02-16T02:47:52.954Z,0
2018-02-16T02:48:33.331Z,0
2018-02-16T02:49:13.760Z,0
2018-02-16T02:49:54.147Z,0
2018-02-16T02:50:34.465Z,0
2018-02-16T02:51:14.896Z,0
2018-02-16T02:51:55.340Z,0
2018-02-16T02:52:35.698Z,0
2018-02-16T02:53:16.104Z,0
2018-02-16T02:53:56.511Z,0
2018-02-16T02:54:36.960Z,0
2018-02-16T02:55:17.276Z,0
2018-02-16T02:55:57.794Z,0
2018-02-16T02:56:38.152Z,0
2018-02-16T02:57:18.595Z,0
2018-02-16T02:57:58.975Z,0
2018-02-16T02:58:39.394Z,0
2018-02-16T02:59:19.789Z,0
2018-02-16T03:00:00.167Z,0
2018-02-16T03:00:40.536Z,0
2018-02-16T03:01:20.962Z,0
2018-02-16T03:02:01.295Z,0
2018-02-16T03:02:41.766Z,0
2018-02-16T03:03:22.158Z,0
2018-02-16T03:04:02.566Z,0
2018-02-16T03:04:42.920Z,0
2018-02-16T03:05:23.274Z,0
2018-02-16T03:06:03.738Z,0
2018-02-16T03:06:44.167Z,0
2018-02-16T03:07:24.593Z,0
2018-02-16T03:08:04.970Z,0
2018-02-16T03:08:45.404Z,0
2018-02-16T03:09:25.859Z,0
2018-02-16T03:10:06.182Z,0
2018-02-16T03:10:46.675Z,0
2018-02-16T03:11:27.084Z,0
2018-02-16T03:12:07.448Z,0
2018-02-16T03:12:47.796Z,0
2018-02-16T03:13:28.298Z,0
2018-02-16T03:14:08.603Z,0
2018-02-16T03:14:49.068Z,0
2018-02-16T03:15:29.476Z,0
2018-02-16T03:16:09.845Z,0
2018-02-16T03:16:50.286Z,0
2018-02-16T03:17:30.673Z,0
2018-02-16T03:18:11.061Z,0
2018-02-16T03:18:51.463Z,0
2018-02-16T03:19:31.846Z,0
2018-02-16T03:20:12.252Z,0
2018-02-16T03:20:52.656Z,0
2018-02-16T03:21:33.016Z,0
2018-02-16T03:22:13.413Z,0
2018-02-16T03:22:53.876Z,0
2018-02-16T03:23:34.228Z,0
2018-02-16T03:24:14.600Z,0
2018-02-16T03:24:55.034Z,0
2018-02-16T03:25:35.409Z,0
2018-02-16T03:26:15.799Z,0
2018-02-16T03:26:56.205Z,0
2018-02-16T03:27:36.540Z,0
2018-02-16T03:28:17.017Z,0
2018-02-16T03:28:57.403Z,0
2018-02-16T03:29:37.885Z,0
2018-02-16T03:30:18.290Z,0
2018-02-16T03:30:58.749Z,0
2018-02-16T03:31:39.091Z,0
2018-02-16T03:32:19.543Z,0
2018-02-16T03:32:59.894Z,0
2018-02-16T03:33:40.320Z,0
2018-02-16T03:34:20.810Z,0
2018-02-16T03:35:01.200Z,0
2018-02-16T03:35:41.595Z,0
2018-02-16T03:36:22.010Z,0
2018-02-16T03:37:02.363Z,0
2018-02-16T03:37:42.867Z,0
2018-02-16T03:38:23.297Z,0
2018-02-16T03:39:03.640Z,0
2018-02-16T03:39:44.048Z,0
2018-02-16T03:40:24.455Z,0
2018-02-16T03:41:04.876Z,0
2018-02-16T03:41:45.258Z,0
2018-02-16T03:42:25.700Z,0
2018-02-16T03:43:06.093Z,0
2018-02-16T03:43:46.475Z,0
2018-02-16T03:44:26.852Z,0
2018-02-16T03:45:07.208Z,0
2018-02-16T03:45:47.610Z,0
2018-02-16T03:46:27.975Z,0
2018-02-16T03:47:08.322Z,0
2018-02-16T03:47:48.786Z,0
2018-02-16T03:48:29.180Z,0
2018-02-16T03:49:09.618Z,0
2018-02-16T03:49:49.974Z,0
2018-02-16T03:50:30.351Z,0
2018-02-16T03:51:10.765Z,0
2018-02-16T03:51:51.140Z,0
2018-02-16T03:52:31.583Z,0
2018-02-16T03:53:12.011Z,0
2018-02-16T03:53:52.430Z,0
2018-02-16T03:54:32.718Z,0
2018-02-16T03:55:13.090Z,0
2018-02-16T03:55:53.533Z,0
2018-02-16T03:56:33.931Z,0
2018-02-16T03:57:14.309Z,0
2018-02-16T03:57:54.760Z,0
2018-02-16T03:58:35.093Z,0
2018-02-16T03:59:15.533Z,0
2018-02-16T03:59:55.924Z,0
2018-02-16T04:00:36.327Z,0
2018-02-16T04:01:16.782Z,0
2018-02-16T04:01:57.276Z,0
2018-02-16T04:02:37.645Z,0
2018-02-16T04:03:18.020Z,0
2018-02-16T04:03:58.409Z,0
2018-02-16T04:44:16.389Z,0
2018-02-16T04:45:08.915Z,0
2018-02-16T04:46:01.214Z,0
2018-02-16T04:48:47.420Z,0
2018-02-16T04:51:48.041Z,0
2018-02-16T04:52:39.370Z,0
2018-02-16T04:53:20.798Z,0
2018-02-16T04:54:01.274Z,0
2018-02-16T04:54:41.719Z,0
2018-02-16T04:55:22.098Z,0
2018-02-16T04:56:02.941Z,0
2018-02-16T04:56:43.288Z,0
2018-02-16T04:57:23.692Z,0
2018-02-16T04:58:04.087Z,0
2018-02-16T04:58:44.499Z,0
2018-02-16T04:59:24.776Z,0
2018-02-16T05:00:05.210Z,0
2018-02-16T05:00:45.637Z,0
2018-02-16T05:01:26.103Z,0
2018-02-16T05:02:06.434Z,0
2018-02-16T05:02:46.808Z,0
2018-02-16T05:03:27.208Z,0
2018-02-16T05:04:07.588Z,0
2018-02-16T05:04:47.936Z,0
2018-02-16T05:05:28.350Z,0
2018-02-16T05:06:08.659Z,0
2018-02-16T05:06:49.147Z,0
2018-02-16T05:07:29.565Z,0
2018-02-16T05:08:10.013Z,0
2018-02-16T05:08:50.459Z,0
2018-02-16T05:09:30.866Z,0
2018-02-16T05:10:11.334Z,0
2018-02-16T05:10:51.724Z,0
2018-02-16T05:11:32.106Z,0
2018-02-16T05:12:12.466Z,0
2018-02-16T05:12:52.908Z,0
2018-02-16T05:13:33.331Z,0
2018-02-16T05:14:13.745Z,0
2018-02-16T05:14:54.148Z,0
2018-02-16T05:15:34.520Z,0
2018-02-16T05:16:14.889Z,0
2018-02-16T05:16:55.366Z,0
2018-02-16T05:17:35.706Z,0
2018-02-16T05:18:16.152Z,0
2018-02-16T05:18:56.552Z,0
2018-02-16T05:19:36.972Z,0
2018-02-16T05:20:17.426Z,0
2018-02-16T05:20:57.798Z,0
2018-02-16T05:21:38.204Z,0
2018-02-16T05:22:18.576Z,0
2018-02-16T05:22:58.933Z,0
2018-02-16T05:23:39.392Z,0
2018-02-16T05:24:19.734Z,0
2018-02-16T05:25:00.134Z,0
2018-02-16T05:25:40.530Z,0
2018-02-16T05:26:20.891Z,0
2018-02-16T05:27:01.437Z,0
2018-02-16T05:27:41.851Z,0
2018-02-16T05:28:22.239Z,0
2018-02-16T05:29:02.578Z,0
2018-02-16T05:29:43.098Z,0
2018-02-16T05:30:23.550Z,0
2018-02-16T05:31:03.856Z,0
2018-02-16T05:31:44.306Z,0
2018-02-16T05:32:24.760Z,0
2018-02-16T05:33:05.161Z,0
2018-02-16T05:33:45.983Z,0
2018-02-16T05:34:25.991Z,0
2018-02-16T05:35:06.426Z,0
2018-02-16T05:35:46.734Z,0
2018-02-16T05:36:27.077Z,0
2018-02-16T05:37:07.507Z,0
2018-02-16T05:37:47.963Z,0
2018-02-16T05:38:28.917Z,0
2018-02-16T05:39:09.307Z,0
2018-02-16T05:39:49.686Z,0
2018-02-16T05:40:30.092Z,0
2018-02-16T05:41:10.445Z,0
2018-02-16T05:41:50.895Z,0
2018-02-16T05:42:31.290Z,0
2018-02-16T05:43:11.746Z,0
2018-02-16T05:43:52.131Z,0
2018-02-16T05:44:32.449Z,0
2018-02-16T05:45:12.921Z,0
2018-02-16T05:45:53.313Z,0
2018-02-16T05:46:33.706Z,0
2018-02-16T05:47:14.099Z,0
2018-02-16T05:47:54.575Z,0
2018-02-16T05:48:34.997Z,0
2018-02-16T05:49:15.334Z,0
2018-02-16T05:49:55.749Z,0
2018-02-16T05:50:36.077Z,0
2018-02-16T05:51:16.606Z,0
2018-02-16T05:51:56.901Z,0
2018-02-16T05:52:37.454Z,0
2018-02-16T05:53:17.820Z,0
2018-02-16T05:53:58.985Z,0
2018-02-16T05:54:38.888Z,0
2018-02-16T05:55:19.224Z,0
2018-02-16T05:55:59.642Z,0
2018-02-16T05:56:40.035Z,0
2018-02-16T05:57:20.420Z,0
2018-02-16T05:58:00.869Z,0
2018-02-16T05:58:41.256Z,0
2018-02-16T05:59:21.622Z,0
2018-02-16T06:00:02.018Z,0
2018-02-16T06:00:42.654Z,0
2018-02-16T06:01:23.040Z,0
2018-02-16T06:02:03.591Z,0
2018-02-16T06:02:43.913Z,0
2018-02-16T06:03:24.366Z,0
2018-02-16T06:04:04.756Z,0
2018-02-16T06:04:45.160Z,0
2018-02-16T06:05:25.658Z,0
2018-02-16T06:06:05.994Z,0
2018-02-16T06:06:46.397Z,0
2018-02-16T06:07:26.964Z,0
2018-02-16T06:08:07.705Z,0
2018-02-16T06:08:48.159Z,0
2018-02-16T06:09:28.596Z,0
2018-02-16T06:10:09.046Z,0
2018-02-16T06:10:50.870Z,0
2018-02-16T06:11:32.201Z,0
2018-02-16T06:12:12.360Z,0
2018-02-16T06:12:53.986Z,0
2018-02-16T06:13:34.661Z,0
2018-02-16T06:14:16.781Z,0
2018-02-16T06:14:59.467Z,0
2018-02-16T06:15:39.943Z,0
2018-02-16T06:16:20.402Z,0
2018-02-16T06:17:00.729Z,0
2018-02-16T06:17:41.257Z,0
2018-02-16T06:18:21.720Z,0
2018-02-16T06:19:02.180Z,0
2018-02-16T06:19:43.450Z,0
2018-02-16T06:20:23.856Z,0
2018-02-16T06:21:04.471Z,0
2018-02-16T06:21:44.883Z,0
2018-02-16T06:22:25.659Z,0
2018-02-16T06:23:06.001Z,0
2018-02-16T06:23:46.506Z,0
2018-02-16T06:24:28.568Z,0
2018-02-16T06:25:11.053Z,0
2018-02-16T06:25:49.627Z,0
2018-02-16T06:26:30.042Z,0
2018-02-16T06:27:10.460Z,0
2018-02-16T06:27:50.853Z,0
2018-02-16T06:28:31.339Z,0
2018-02-16T06:29:11.787Z,0
2018-02-16T06:29:52.412Z,0
2018-02-16T06:32:26.651Z,0
2018-02-16T06:33:21.492Z,0
2018-02-16T06:34:15.208Z,0
2018-02-16T06:35:14.643Z,0
2018-02-16T06:36:13.429Z,0
2018-02-16T06:37:12.336Z,0
2018-02-16T06:38:04.869Z,0
2018-02-16T06:39:03.895Z,0
2018-02-16T06:40:01.909Z,0
2018-02-16T06:41:00.714Z,0
2018-02-16T06:41:59.053Z,0
2018-02-16T06:42:56.700Z,0
2018-02-16T06:43:50.978Z,0
2018-02-16T06:44:46.804Z,0
2018-02-16T06:45:45.090Z,0
2018-02-16T06:46:52.791Z,5
2018-02-16T06:47:49.179Z,5
2018-02-16T06:48:43.313Z,5
2018-02-16T06:49:36.685Z,5
2018-02-16T06:50:32.136Z,5
2018-02-16T06:51:25.934Z,5
2018-02-16T06:52:07.674Z,5
2018-02-16T06:52:48.376Z,10
2018-02-16T06:53:29.190Z,10
2018-02-16T06:54:09.738Z,15
2018-02-16T06:54:50.134Z,10
2018-02-16T06:55:30.634Z,15
2018-02-16T06:56:10.900Z,15
2018-02-16T06:56:51.497Z,20
2018-02-16T06:57:32.299Z,20
2018-02-16T06:58:13.191Z,25
2018-02-16T06:58:53.696Z,25
2018-02-16T06:59:34.137Z,30
2018-02-16T07:00:14.671Z,30
2018-02-16T07:00:55.422Z,30
2018-02-16T07:01:36.256Z,40
2018-02-16T07:02:16.429Z,40
2018-02-16T07:02:57.323Z,45
2018-02-16T07:03:38.142Z,50
2018-02-16T07:04:18.846Z,55
2018-02-16T07:04:59.946Z,60
2018-02-16T07:05:40.273Z,65
2018-02-16T07:06:21.127Z,65
2018-02-16T07:07:01.947Z,65
2018-02-16T07:07:42.579Z,55
2018-02-16T07:08:23.233Z,40
2018-02-16T07:09:03.793Z,35
2018-02-16T07:09:44.158Z,35
2018-02-16T07:10:24.589Z,35
2018-02-16T07:11:05.102Z,35
2018-02-16T07:11:45.741Z,35
2018-02-16T07:12:26.240Z,35
2018-02-16T07:13:07.037Z,35
2018-02-16T07:13:47.731Z,35
2018-02-16T07:14:43.054Z,40
2018-02-16T07:29:50.671Z,60
2018-02-16T07:30:49.960Z,60
2018-02-16T07:33:53.836Z,60
2018-02-16T07:34:49.732Z,60
2018-02-16T07:35:57.668Z,60
2018-02-16T07:36:55.812Z,60
2018-02-16T07:37:55.556Z,55
2018-02-16T07:38:48.034Z,60
2018-02-16T07:39:43.606Z,60
2018-02-16T07:40:37.439Z,60
2018-02-16T07:41:32.419Z,60
2018-02-16T07:42:30.741Z,60
2018-02-16T07:43:25.423Z,55
2018-02-16T07:44:26.908Z,55
2018-02-16T07:45:28.131Z,55
2018-02-16T07:46:20.959Z,55
2018-02-16T07:47:17.136Z,55
2018-02-16T07:48:24.119Z,55
2018-02-16T07:49:33.531Z,55
2018-02-16T07:50:34.501Z,55
2018-02-16T07:51:29.466Z,55
2018-02-16T07:52:27.896Z,60
2018-02-16T07:53:22.603Z,60
2018-02-16T07:54:23.390Z,55
2018-02-16T07:57:33.473Z,55
2018-02-16T08:00:23.001Z,60
2018-02-16T08:11:33.952Z,60
2018-02-16T08:12:29.025Z,60
2018-02-16T08:13:23.831Z,60
2018-02-16T08:14:30.269Z,65
2018-02-16T08:15:23.228Z,65
2018-02-16T08:16:23.068Z,70
2018-02-16T08:19:27.808Z,75
2018-02-16T08:20:22.091Z,70
2018-02-16T08:21:27.115Z,65
2018-02-16T08:22:26.783Z,45
2018-02-16T08:23:21.758Z,45
2018-02-16T08:24:17.809Z,40
2018-02-16T08:25:14.141Z,50
2018-02-16T08:26:08.447Z,40
2018-02-16T08:40:07.771Z,65
2018-02-16T08:41:06.459Z,65
2018-02-16T08:41:57.836Z,70
2018-02-16T08:48:48.654Z,70
2018-02-16T08:50:00.131Z,70
2018-02-16T09:02:17.821Z,60
2018-02-16T09:03:00.092Z,75
2018-02-16T09:03:41.591Z,75
2018-02-16T09:04:22.062Z,75
2018-02-16T09:05:02.796Z,75
2018-02-16T09:05:43.217Z,75
2018-02-16T09:06:23.907Z,75
2018-02-16T09:07:07.766Z,75
2018-02-16T09:07:48.669Z,75
2018-02-16T09:08:29.204Z,55
2018-02-16T09:09:09.483Z,70
2018-02-16T09:09:50.029Z,65
2018-02-16T09:10:30.772Z,60
2018-02-16T09:11:12.135Z,60
2018-02-16T09:11:52.358Z,50
2018-02-16T09:12:37.226Z,70
2018-02-16T09:13:22.154Z,70
2018-02-16T09:13:59.486Z,65
2018-02-16T09:14:39.625Z,60
2018-02-16T09:15:20.474Z,70
2018-02-16T09:16:02.114Z,50
2018-02-16T09:16:43.112Z,50
2018-02-16T09:17:23.086Z,65
2018-02-16T09:18:04.011Z,50
2018-02-16T09:18:44.996Z,65
2018-02-16T09:19:26.708Z,65
2018-02-16T09:20:06.935Z,65
2018-02-16T09:20:47.791Z,65
2018-02-16T09:21:28.393Z,60
2018-02-16T09:22:09.359Z,60
2018-02-16T09:22:49.924Z,60
2018-02-16T09:23:30.416Z,60
2018-02-16T09:24:10.890Z,60
2018-02-16T09:24:51.670Z,60
2018-02-16T09:25:33.302Z,60
2018-02-16T09:26:13.730Z,60
2018-02-16T09:26:54.662Z,60
2018-02-16T09:27:35.519Z,60
2018-02-16T09:28:16.571Z,60
2018-02-16T09:28:57.596Z,60
2018-02-16T09:29:37.412Z,60
2018-02-16T09:30:18.286Z,60
2018-02-16T09:30:58.409Z,60
2018-02-16T09:31:39.026Z,60
2018-02-16T09:32:21.520Z,60
2018-02-16T09:33:02.831Z,60
2018-02-16T09:33:43.627Z,60
2018-02-16T09:34:24.503Z,60
2018-02-16T09:35:05.090Z,60
2018-02-16T09:35:45.859Z,65
2018-02-16T09:36:27.724Z,65
2018-02-16T09:37:12.116Z,65
2018-02-16T09:37:53.538Z,60
2018-02-16T09:38:34.696Z,50
2018-02-16T09:39:14.773Z,60
2018-02-16T09:39:56.676Z,60
2018-02-16T09:40:42.336Z,60
2018-02-16T09:41:24.922Z,60
2018-02-16T09:42:06.133Z,60
2018-02-16T09:42:46.625Z,60
2018-02-16T09:43:28.121Z,60
2018-02-16T09:44:08.254Z,60
2018-02-16T09:44:48.702Z,60
2018-02-16T09:45:29.301Z,60
2018-02-16T09:46:12.452Z,60
2018-02-16T09:46:52.394Z,60
2018-02-16T09:47:33.553Z,60
2018-02-16T09:48:14.113Z,65
2018-02-16T09:48:54.671Z,60
2018-02-16T09:49:38.999Z,60
2018-02-16T09:50:19.353Z,60
2018-02-16T09:51:00.091Z,60
2018-02-16T09:51:40.403Z,60
2018-02-16T09:52:20.818Z,60
2018-02-16T09:53:01.485Z,60
2018-02-16T09:53:42.844Z,60
2018-02-16T09:54:23.334Z,60
2018-02-16T09:55:03.807Z,60
2018-02-16T09:55:47.021Z,60
2018-02-16T09:56:26.339Z,60
2018-02-16T09:57:06.795Z,55
2018-02-16T09:57:47.960Z,55
2018-02-16T09:58:28.326Z,55
2018-02-16T09:59:09.183Z,55
2018-02-16T09:59:49.569Z,55
2018-02-16T10:00:30.033Z,55
2018-02-16T10:01:10.625Z,55
2018-02-16T10:01:51.636Z,55
2018-02-16T10:02:32.061Z,55
2018-02-16T10:03:13.983Z,55
2018-02-16T10:03:57.309Z,55
2018-02-16T10:04:37.913Z,55
2018-02-16T10:05:18.458Z,55
2018-02-16T10:47:36.981Z,65
2018-02-16T10:48:16.305Z,60
2018-02-16T10:48:55.547Z,55
2018-02-16T10:49:37.087Z,65
2018-02-16T10:50:17.333Z,50
2018-02-16T10:50:59.000Z,65
2018-02-16T10:53:41.941Z,50
2018-02-16T10:54:23.786Z,45
2018-02-16T10:55:04.707Z,50
2018-02-16T10:55:47.562Z,65
2018-02-16T10:56:29.259Z,65
2018-02-16T10:57:10.244Z,45
2018-02-16T10:57:53.314Z,40
2018-02-16T10:58:34.344Z,40
2018-02-16T10:59:14.875Z,40
2018-02-16T10:59:56.373Z,40
2018-02-16T11:00:36.753Z,60
2018-02-16T11:01:18.860Z,40
2018-02-16T11:02:00.332Z,40
2018-02-16T11:02:40.649Z,45
2018-02-16T11:03:21.063Z,50
2018-02-16T11:04:01.953Z,60
2018-02-16T11:04:42.416Z,60
2018-02-16T11:05:23.207Z,60
2018-02-16T11:06:03.553Z,60
2018-02-16T11:06:44.903Z,60
2018-02-16T11:07:25.456Z,60
2018-02-16T11:08:06.497Z,55
2018-02-16T11:08:48.796Z,60
2018-02-16T11:09:29.204Z,60
2018-02-16T11:10:09.585Z,60
2018-02-16T11:10:50.900Z,65
2018-02-16T11:11:31.564Z,65
2018-02-16T11:12:11.993Z,65
2018-02-16T11:12:53.954Z,65
2018-02-16T11:13:34.813Z,65
2018-02-16T11:14:15.267Z,65
2018-02-16T11:14:55.739Z,65
2018-02-16T11:15:37.793Z,60
2018-02-16T11:16:18.423Z,60
2018-02-16T11:16:58.785Z,65
2018-02-16T11:17:39.604Z,60
2018-02-16T11:18:20.919Z,60
2018-02-16T11:19:01.831Z,60
2018-02-16T11:19:42.262Z,60
2018-02-16T11:20:23.070Z,60
2018-02-16T11:21:03.472Z,60
2018-02-16T11:21:43.933Z,65
2018-02-16T11:22:25.445Z,65
2018-02-16T11:23:05.597Z,65
2018-02-16T11:23:46.245Z,60
2018-02-16T11:24:26.494Z,60
2018-02-16T11:25:08.075Z,65
2018-02-16T11:25:49.020Z,65
2018-02-16T11:26:28.858Z,65
2018-02-16T11:27:10.446Z,65
2018-02-16T11:27:51.376Z,65
2018-02-16T11:28:35.173Z,65
2018-02-16T11:29:14.508Z,65
2018-02-16T11:29:55.276Z,60
2018-02-16T11:30:35.976Z,60
2018-02-16T11:31:16.508Z,60
2018-02-16T11:31:56.919Z,55
2018-02-16T11:32:37.553Z,55
2018-02-16T11:33:17.783Z,55
2018-02-16T11:33:58.140Z,55
2018-02-16T11:34:39.245Z,55
2018-02-16T11:35:20.184Z,55
2018-02-16T11:36:00.686Z,55
2018-02-16T11:36:41.554Z,55
2018-02-16T11:37:22.273Z,55
2018-02-16T11:38:02.760Z,55
2018-02-16T11:38:43.448Z,60
2018-02-16T11:39:24.065Z,55
2018-02-16T11:40:05.007Z,55
2018-02-16T11:40:46.060Z,55
2018-02-16T11:41:27.688Z,55
2018-02-16T11:42:09.641Z,55
2018-02-16T11:42:50.129Z,55
2018-02-16T11:43:30.694Z,60
2018-02-16T11:44:11.071Z,60
2018-02-16T11:44:51.875Z,65
2018-02-16T11:45:32.300Z,65
2018-02-16T11:46:13.168Z,60
2018-02-16T11:46:53.645Z,60
2018-02-16T11:47:34.030Z,60
2018-02-16T11:48:14.721Z,60
2018-02-16T11:48:55.164Z,65
2018-02-16T11:49:36.640Z,65
2018-02-16T11:50:17.608Z,60
2018-02-16T11:50:58.973Z,60
2018-02-16T11:51:43.839Z,60
2018-02-16T11:52:24.771Z,60
2018-02-16T11:53:05.294Z,65
2018-02-16T11:53:46.745Z,65
2018-02-16T11:54:26.280Z,60
2018-02-16T11:55:06.625Z,65
2018-02-16T11:55:47.053Z,60
2018-02-16T11:56:27.652Z,65
2018-02-16T11:57:08.569Z,65
2018-02-16T11:57:49.471Z,70
2018-02-16T11:58:29.993Z,70
2018-02-16T11:59:10.468Z,65
2018-02-16T11:59:50.915Z,65
2018-02-16T12:00:31.306Z,65
2018-02-16T12:01:11.846Z,65
2018-02-16T12:01:52.149Z,65
2018-02-16T12:02:32.725Z,70
2018-02-16T12:03:13.139Z,70
2018-02-16T12:03:54.303Z,70
2018-02-16T12:04:34.843Z,70
2018-02-16T12:05:15.263Z,65
2018-02-16T12:05:56.023Z,65
2018-02-16T12:06:36.370Z,65
2018-02-16T12:07:19.277Z,70
2018-02-16T12:07:59.746Z,70
2018-02-16T12:08:40.829Z,65
2018-02-16T12:09:21.846Z,65
2018-02-16T12:10:02.224Z,65
2018-02-16T12:10:43.179Z,70
2018-02-16T12:11:24.152Z,70
2018-02-16T12:12:04.823Z,65
2018-02-16T12:12:45.314Z,65
2018-02-16T12:13:25.963Z,65
2018-02-16T12:14:06.319Z,65
2018-02-16T12:14:47.654Z,65
2018-02-16T12:15:27.974Z,65
2018-02-16T12:16:08.321Z,70
2018-02-16T12:16:48.738Z,70
2018-02-16T12:17:29.173Z,70
2018-02-16T12:18:09.653Z,70
2018-02-16T12:18:50.396Z,70
2018-02-16T12:19:30.787Z,70
2018-02-16T12:20:12.644Z,70
2018-02-16T12:20:55.104Z,70
2018-02-16T12:21:34.976Z,70
2018-02-16T12:22:15.296Z,70
2018-02-16T12:22:56.904Z,70
2018-02-16T12:23:37.693Z,65
2018-02-16T12:24:17.985Z,65
2018-02-16T12:24:59.004Z,65
2018-02-16T12:25:39.426Z,60
2018-02-16T12:26:19.966Z,60
2018-02-16T12:27:03.179Z,60
2018-02-16T12:27:43.995Z,60
2018-02-16T12:28:25.527Z,60
2018-02-16T12:29:06.362Z,60
2018-02-16T12:29:48.601Z,60
2018-02-16T12:30:29.818Z,60
2018-02-16T12:31:10.281Z,60
2018-02-16T12:31:50.600Z,60
2018-02-16T12:32:30.943Z,60
2018-02-16T12:33:11.729Z,60
2018-02-16T12:33:52.916Z,60
2018-02-16T12:34:33.398Z,60
2018-02-16T12:35:15.741Z,60
2018-02-16T12:35:56.374Z,60
2018-02-16T12:36:36.893Z,60
2018-02-16T12:37:17.353Z,60
2018-02-16T12:37:59.504Z,60
2018-02-16T12:38:40.061Z,60
2018-02-16T12:39:22.049Z,60
2018-02-16T12:40:02.548Z,60
2018-02-16T12:40:43.819Z,55
2018-02-16T12:41:24.141Z,55
2018-02-16T12:42:04.588Z,55
2018-02-16T12:42:45.032Z,55
2018-02-16T12:43:25.796Z,55
2018-02-16T12:44:07.725Z,55